createdAt,value
2016-09-25T00:00:02.166Z,60.5
2016-09-25T00:10:02.133Z,61.1
2016-09-25T00:20:02.155Z,61.6
2016-09-25T00:30:02.135Z,61.1
2016-09-25T00:40:02.168Z,61.1
2016-09-25T00:50:02.132Z,60.5
2016-09-25T01:00:02.132Z,60.5
2016-09-25T01:10:02.128Z,60.5
2016-09-25T01:20:02.144Z,60.5
2016-09-25T01:30:01.116Z,60.5
2016-09-25T01:40:07.065Z,60.5
2016-09-25T01:50:10.399Z,60.5
2016-09-25T02:00:10.421Z,60
2016-09-25T02:10:10.399Z,60
2016-09-25T02:20:03.876Z,60.5
2016-09-25T02:30:02.145Z,60.5
2016-09-25T02:40:02.126Z,60
2016-09-25T02:50:02.125Z,60
2016-09-25T03:00:02.128Z,59.5
2016-09-25T03:10:02.141Z,60.5
2016-09-25T03:20:02.126Z,60
2016-09-25T03:30:02.127Z,60
2016-09-25T03:40:02.130Z,60
2016-09-25T03:50:02.152Z,59.5
2016-09-25T04:00:02.132Z,59.5
2016-09-25T04:10:02.155Z,59.5
2016-09-25T04:20:02.128Z,60
2016-09-25T04:30:02.133Z,59.5
2016-09-25T04:40:02.125Z,59.5
2016-09-25T04:50:02.142Z,58.9
2016-09-25T05:00:02.129Z,59.5
2016-09-25T05:10:02.162Z,59.5
2016-09-25T05:20:02.130Z,59.5
2016-09-25T05:30:09.184Z,59.5
2016-09-25T05:40:02.180Z,58.9
2016-09-25T05:50:02.172Z,58.4
2016-09-25T06:01:05.322Z,59.5
2016-09-25T06:10:17.460Z,58.9
2016-09-25T06:20:21.095Z,59.5
2016-09-25T06:30:08.452Z,58.4
2016-09-25T06:40:02.137Z,59.5
2016-09-25T06:50:02.142Z,59.5
2016-09-25T07:00:02.131Z,59.5
2016-09-25T07:10:02.132Z,59.5
2016-09-25T07:20:02.132Z,58.9
2016-09-25T07:30:02.145Z,59.5
2016-09-25T07:40:02.131Z,59.5
2016-09-25T07:50:02.169Z,59.5
2016-09-25T08:00:02.155Z,59.5
2016-09-25T08:10:02.132Z,60
2016-09-25T08:20:02.140Z,60
2016-09-25T08:30:02.133Z,60
2016-09-25T08:40:02.132Z,60
2016-09-25T08:50:02.152Z,60
2016-09-25T09:00:02.141Z,60.5
2016-09-25T09:10:02.176Z,60.5
2016-09-25T09:20:02.136Z,60.5
2016-09-25T09:30:02.171Z,60.5
2016-09-25T09:40:02.129Z,60.5
2016-09-25T09:50:02.161Z,60.5
2016-09-25T10:00:02.132Z,60.5
2016-09-25T10:10:02.146Z,61.1
2016-09-25T10:20:02.146Z,61.6
2016-09-25T10:30:02.143Z,61.6
2016-09-25T10:40:02.139Z,61.6
2016-09-25T10:50:02.135Z,61.6
2016-09-25T11:00:02.180Z,61.6
2016-09-25T11:10:02.170Z,62.1
2016-09-25T11:20:02.119Z,62.1
2016-09-25T11:30:02.160Z,62.7
2016-09-25T11:40:02.145Z,63.8
2016-09-25T11:51:05.325Z,63.8
2016-09-25T12:00:07.419Z,64.3
2016-09-25T12:10:02.135Z,63.8
2016-09-25T12:20:04.159Z,64.3
2016-09-25T12:30:33.287Z,64.3
2016-09-25T12:40:38.397Z,64.3
2016-09-25T12:50:05.147Z,63.8
2016-09-25T13:00:02.156Z,64.3
2016-09-25T13:10:02.143Z,63.8
2016-09-25T13:20:02.177Z,64.8
2016-09-25T13:30:02.141Z,64.3
2016-09-25T13:40:02.131Z,64.8
2016-09-25T13:50:02.131Z,64.8
2016-09-25T14:00:02.140Z,64.8
2016-09-25T14:10:02.136Z,64.8
2016-09-25T14:20:02.127Z,64.8
2016-09-25T14:30:02.144Z,65.4
2016-09-25T14:40:02.160Z,64.8
2016-09-25T14:50:02.160Z,64.8
2016-09-25T15:00:02.159Z,65.4
2016-09-25T15:10:02.127Z,65.4
2016-09-25T15:20:02.141Z,65.4
2016-09-25T15:30:02.127Z,64.8
2016-09-25T15:40:02.128Z,65.9
2016-09-25T15:50:02.131Z,64.8
2016-09-25T16:00:02.134Z,64.8
2016-09-25T16:10:02.142Z,65.9
2016-09-25T16:20:02.170Z,65.4
2016-09-25T16:30:02.163Z,65.4
2016-09-25T16:40:02.126Z,65.9
2016-09-25T16:50:02.166Z,65.9
2016-09-25T17:00:02.162Z,65.9
2016-09-25T17:10:02.138Z,65.4
2016-09-25T17:20:02.128Z,64.8
2016-09-25T17:30:02.178Z,65.4
2016-09-25T17:40:02.159Z,64.8
2016-09-25T17:50:02.140Z,64.8
2016-09-25T18:00:02.143Z,64.8
2016-09-25T18:10:02.129Z,64.8
2016-09-25T18:20:02.174Z,64.8
2016-09-25T18:30:02.171Z,65.4
2016-09-25T18:40:02.239Z,64.8
2016-09-25T18:50:02.228Z,64.8
2016-09-25T19:00:02.162Z,64.8
2016-09-25T19:10:02.171Z,64.3
2016-09-25T19:20:02.129Z,64.3
2016-09-25T19:30:02.140Z,64.8
2016-09-25T19:40:02.142Z,64.3
2016-09-25T19:50:02.140Z,63.8
2016-09-25T20:00:02.161Z,63.8
2016-09-25T20:10:02.136Z,64.3
2016-09-25T20:20:07.765Z,63.8
2016-09-25T20:30:02.175Z,64.3
2016-09-25T20:40:02.156Z,63.8
2016-09-25T20:50:02.170Z,63.8
2016-09-25T21:00:02.144Z,63.8
2016-09-25T21:10:02.176Z,63.8
2016-09-25T21:20:02.168Z,63.8
2016-09-25T21:30:02.134Z,64.3
2016-09-25T21:40:02.138Z,63.8
2016-09-25T21:50:02.164Z,63.8
2016-09-25T22:00:07.640Z,63.8
2016-09-25T22:10:02.131Z,63.8
2016-09-25T22:20:17.207Z,63.8
2016-09-25T22:30:41.525Z,63.8
2016-09-25T22:40:02.133Z,63.8
2016-09-25T22:50:02.160Z,63.8
2016-09-25T23:00:02.151Z,62.7
2016-09-25T23:10:02.141Z,62.7
2016-09-25T23:20:02.139Z,63.8
2016-09-25T23:30:02.128Z,62.1
2016-09-25T23:40:02.131Z,62.7
2016-09-25T23:50:02.130Z,63.2
